LC10 LFKF-LFMT
Flight info
| Callsign | LC10 |
|---|---|
| Flight time | 0h 54m |
| Altitude | 260 |
| Route | TINO1D DIVKO FJR |
| Aircraft | B733/M-V/N |
Departure
| Time | 2026-05-04 06:36 |
|---|---|
| Airport | Figari Sud-Corse Airport (LFKF) |
Arrival
| Time | 2026-05-04 07:30 |
|---|---|
| Airport | Montpellier-Méditerranée Airport (LFMT) |
| Time | Latitude | Longitude | Altitude | Speed | Heading |
|---|---|---|---|---|---|
| 2026-05-04 06:31 | 41.49994 | 9.09831 | 63 ft | 0 kts | 139° |
| 2026-05-04 06:31 | 41.49994 | 9.09830 | 63 ft | 0 kts | 139° |
| 2026-05-04 06:31 | 41.50011 | 9.09810 | 63 ft | 4 kts | 138° |
| 2026-05-04 06:32 | 41.50028 | 9.09769 | 63 ft | 7 kts | 74° |
| 2026-05-04 06:33 | 41.50195 | 9.09689 | 64 ft | 8 kts | 297° |
| 2026-05-04 06:34 | 41.50160 | 9.09599 | 61 ft | 14 kts | 227° |
| 2026-05-04 06:34 | 41.50079 | 9.09481 | 59 ft | 20 kts | 227° |
| 2026-05-04 06:34 | 41.49969 | 9.09321 | 56 ft | 26 kts | 227° |
| 2026-05-04 06:34 | 41.49823 | 9.09110 | 47 ft | 33 kts | 228° |
| 2026-05-04 06:35 | 41.49661 | 9.08872 | 38 ft | 36 kts | 227° |
| 2026-05-04 06:36 | 41.52264 | 9.12929 | 1234 ft | 184 kts | 53° |
| 2026-05-04 06:37 | 41.53005 | 9.14259 | 2046 ft | 179 kts | 55° |
| 2026-05-04 06:37 | 41.53708 | 9.15643 | 2623 ft | 185 kts | 55° |
| 2026-05-04 06:37 | 41.54454 | 9.17095 | 3139 ft | 193 kts | 54° |
| 2026-05-04 06:37 | 41.55233 | 9.18594 | 3649 ft | 201 kts | 54° |
| 2026-05-04 06:38 | 41.55728 | 9.20402 | 4119 ft | 216 kts | 90° |
| 2026-05-04 06:38 | 41.55166 | 9.22260 | 4657 ft | 229 kts | 131° |
| 2026-05-04 06:40 | 41.48482 | 9.12940 | 8916 ft | 242 kts | 247° |
| 2026-05-04 06:40 | 41.47751 | 9.10930 | 9516 ft | 242 kts | 252° |
| 2026-05-04 06:40 | 41.47575 | 9.08787 | 10042 ft | 233 kts | 286° |
| 2026-05-04 06:40 | 41.48233 | 9.06764 | 10215 ft | 249 kts | 302° |
| 2026-05-04 06:41 | 41.49150 | 9.04679 | 10275 ft | 274 kts | 302° |
| 2026-05-04 06:41 | 41.50170 | 9.02356 | 10324 ft | 299 kts | 302° |
| 2026-05-04 06:41 | 41.51250 | 8.99876 | 10575 ft | 316 kts | 302° |
| 2026-05-04 06:41 | 41.52349 | 8.97339 | 11194 ft | 320 kts | 302° |
| 2026-05-04 06:42 | 41.53455 | 8.94780 | 11941 ft | 319 kts | 301° |
| 2026-05-04 06:42 | 41.54555 | 8.92229 | 12665 ft | 319 kts | 301° |
| 2026-05-04 06:42 | 41.55657 | 8.89670 | 13330 ft | 320 kts | 302° |
| 2026-05-04 06:44 | 41.63561 | 8.71253 | 17307 ft | 336 kts | 302° |
| 2026-05-04 06:44 | 41.64716 | 8.68551 | 17818 ft | 338 kts | 302° |
| 2026-05-04 06:44 | 41.65899 | 8.65784 | 18327 ft | 340 kts | 302° |
| 2026-05-04 06:45 | 41.67062 | 8.63057 | 18814 ft | 343 kts | 302° |
| 2026-05-04 06:45 | 41.68247 | 8.60278 | 19294 ft | 345 kts | 302° |
| 2026-05-04 06:45 | 41.69450 | 8.57455 | 19767 ft | 347 kts | 302° |
| 2026-05-04 06:45 | 41.70639 | 8.54660 | 20222 ft | 349 kts | 302° |
| 2026-05-04 06:46 | 41.71844 | 8.51827 | 20670 ft | 352 kts | 302° |
| 2026-05-04 06:46 | 41.73053 | 8.48980 | 21106 ft | 354 kts | 302° |
| 2026-05-04 06:46 | 41.74268 | 8.46117 | 21532 ft | 356 kts | 302° |
| 2026-05-04 06:46 | 41.75495 | 8.43223 | 21952 ft | 358 kts | 302° |
| 2026-05-04 06:48 | 41.84231 | 8.22511 | 24646 ft | 373 kts | 301° |
| 2026-05-04 06:48 | 41.85506 | 8.19479 | 25008 ft | 375 kts | 301° |
| 2026-05-04 06:49 | 41.86786 | 8.16431 | 25361 ft | 377 kts | 301° |
| 2026-05-04 06:50 | 41.95875 | 7.94707 | 26100 ft | 382 kts | 301° |
| 2026-05-04 06:51 | 41.97171 | 7.91595 | 26100 ft | 382 kts | 301° |
| 2026-05-04 06:51 | 41.98466 | 7.88485 | 26101 ft | 382 kts | 301° |
| 2026-05-04 06:51 | 41.99759 | 7.85375 | 26102 ft | 382 kts | 301° |
| 2026-05-04 06:51 | 42.01053 | 7.82260 | 26102 ft | 382 kts | 301° |
| 2026-05-04 06:52 | 42.02345 | 7.79144 | 26102 ft | 382 kts | 301° |
| 2026-05-04 06:52 | 42.03618 | 7.76075 | 26102 ft | 382 kts | 301° |
| 2026-05-04 06:52 | 42.04909 | 7.72956 | 26102 ft | 382 kts | 301° |
| 2026-05-04 06:52 | 42.06198 | 7.69838 | 26102 ft | 382 kts | 301° |
| 2026-05-04 06:53 | 42.07488 | 7.66716 | 26102 ft | 382 kts | 301° |
| 2026-05-04 06:53 | 42.08776 | 7.63595 | 26102 ft | 382 kts | 301° |
| 2026-05-04 06:53 | 42.09985 | 7.60414 | 26093 ft | 384 kts | 295° |
| 2026-05-04 06:53 | 42.10916 | 7.56990 | 26091 ft | 385 kts | 293° |
| 2026-05-04 06:54 | 42.11805 | 7.53639 | 26099 ft | 385 kts | 293° |
| 2026-05-04 06:54 | 42.12715 | 7.50254 | 26097 ft | 385 kts | 293° |
| 2026-05-04 06:54 | 42.13632 | 7.46871 | 26095 ft | 385 kts | 293° |
| 2026-05-04 06:54 | 42.14550 | 7.43494 | 26092 ft | 385 kts | 293° |
| 2026-05-04 06:55 | 42.15471 | 7.40108 | 26087 ft | 385 kts | 293° |
| 2026-05-04 06:55 | 42.16390 | 7.36727 | 26074 ft | 385 kts | 293° |
| 2026-05-04 06:55 | 42.17309 | 7.33339 | 26038 ft | 385 kts | 293° |
| 2026-05-04 06:55 | 42.18224 | 7.29954 | 26039 ft | 385 kts | 293° |
| 2026-05-04 06:56 | 42.19140 | 7.26564 | 26034 ft | 385 kts | 293° |
| 2026-05-04 06:57 | 42.25522 | 7.02871 | 26001 ft | 386 kts | 292° |
| 2026-05-04 06:58 | 42.26436 | 6.99461 | 26001 ft | 387 kts | 292° |
| 2026-05-04 06:58 | 42.27350 | 6.96044 | 26001 ft | 387 kts | 292° |
| 2026-05-04 06:58 | 42.28262 | 6.92631 | 26001 ft | 387 kts | 292° |
| 2026-05-04 06:58 | 42.29159 | 6.89267 | 26002 ft | 387 kts | 292° |
| 2026-05-04 06:59 | 42.30069 | 6.85850 | 26001 ft | 387 kts | 292° |
| 2026-05-04 06:59 | 42.30979 | 6.82431 | 26001 ft | 387 kts | 292° |
| 2026-05-04 06:59 | 42.31887 | 6.79014 | 26000 ft | 387 kts | 292° |
| 2026-05-04 06:59 | 42.32794 | 6.75595 | 26001 ft | 387 kts | 292° |
| 2026-05-04 07:01 | 42.39106 | 6.51671 | 26001 ft | 387 kts | 292° |
| 2026-05-04 07:01 | 42.40005 | 6.48247 | 26001 ft | 387 kts | 292° |
| 2026-05-04 07:02 | 42.40902 | 6.44822 | 26001 ft | 387 kts | 292° |
| 2026-05-04 07:02 | 42.41800 | 6.41388 | 26001 ft | 387 kts | 292° |
| 2026-05-04 07:02 | 42.42697 | 6.37954 | 26001 ft | 387 kts | 292° |
| 2026-05-04 07:02 | 42.43566 | 6.34622 | 26019 ft | 387 kts | 292° |
| 2026-05-04 07:03 | 42.44442 | 6.31248 | 26077 ft | 387 kts | 292° |
| 2026-05-04 07:03 | 42.45338 | 6.27797 | 26106 ft | 389 kts | 292° |
| 2026-05-04 07:03 | 42.46233 | 6.24346 | 26109 ft | 389 kts | 292° |
| 2026-05-04 07:03 | 42.47125 | 6.20903 | 26107 ft | 388 kts | 292° |
| 2026-05-04 07:04 | 42.48016 | 6.17460 | 26103 ft | 388 kts | 292° |
| 2026-05-04 07:04 | 42.48907 | 6.14016 | 26101 ft | 387 kts | 292° |
| 2026-05-04 07:04 | 42.49797 | 6.10573 | 26101 ft | 387 kts | 292° |
| 2026-05-04 07:04 | 42.50672 | 6.07179 | 26101 ft | 388 kts | 292° |
| 2026-05-04 07:05 | 42.51559 | 6.03735 | 26102 ft | 388 kts | 292° |
| 2026-05-04 07:05 | 42.52446 | 6.00282 | 26102 ft | 388 kts | 292° |
| 2026-05-04 07:05 | 42.53333 | 5.96827 | 26102 ft | 388 kts | 292° |
| 2026-05-04 07:05 | 42.54216 | 5.93383 | 26102 ft | 388 kts | 292° |
| 2026-05-04 07:06 | 42.55982 | 5.86483 | 26102 ft | 388 kts | 292° |
| 2026-05-04 07:06 | 42.56863 | 5.83032 | 26102 ft | 388 kts | 292° |
| 2026-05-04 07:06 | 42.57731 | 5.79625 | 26102 ft | 388 kts | 292° |
| 2026-05-04 07:07 | 42.58611 | 5.76170 | 26102 ft | 388 kts | 292° |
| 2026-05-04 07:08 | 42.64736 | 5.51965 | 26102 ft | 388 kts | 292° |
| 2026-05-04 07:09 | 42.65598 | 5.48538 | 26102 ft | 388 kts | 292° |
| 2026-05-04 07:09 | 42.66472 | 5.45057 | 26102 ft | 388 kts | 292° |
| 2026-05-04 07:09 | 42.67344 | 5.41582 | 26102 ft | 388 kts | 292° |
| 2026-05-04 07:09 | 42.68212 | 5.38113 | 26102 ft | 388 kts | 292° |
| 2026-05-04 07:10 | 42.69082 | 5.34636 | 26102 ft | 388 kts | 291° |
| 2026-05-04 07:10 | 42.70035 | 5.31222 | 26073 ft | 385 kts | 301° |
| 2026-05-04 07:12 | 42.82578 | 5.12392 | 23582 ft | 384 kts | 313° |
| 2026-05-04 07:12 | 42.84368 | 5.09714 | 22965 ft | 386 kts | 313° |
| 2026-05-04 07:12 | 42.86187 | 5.06990 | 22342 ft | 389 kts | 313° |
| 2026-05-04 07:12 | 42.87990 | 5.04285 | 21728 ft | 391 kts | 313° |
| 2026-05-04 07:13 | 42.89802 | 5.01566 | 21167 ft | 384 kts | 313° |
| 2026-05-04 07:13 | 42.91594 | 4.98873 | 20655 ft | 376 kts | 312° |
| 2026-05-04 07:13 | 42.93325 | 4.96271 | 20155 ft | 371 kts | 312° |
| 2026-05-04 07:14 | 43.00270 | 4.85800 | 18193 ft | 381 kts | 311° |
| 2026-05-04 07:14 | 43.02052 | 4.83107 | 17791 ft | 383 kts | 311° |
| 2026-05-04 07:15 | 43.03831 | 4.80415 | 17398 ft | 387 kts | 311° |
| 2026-05-04 07:15 | 43.05650 | 4.77661 | 16998 ft | 389 kts | 311° |
| 2026-05-04 07:15 | 43.07445 | 4.74924 | 16605 ft | 390 kts | 311° |
| 2026-05-04 07:15 | 43.09258 | 4.72164 | 16206 ft | 392 kts | 311° |
| 2026-05-04 07:16 | 43.11093 | 4.69380 | 15781 ft | 394 kts | 311° |
| 2026-05-04 07:16 | 43.12920 | 4.66618 | 15387 ft | 394 kts | 311° |
| 2026-05-04 07:16 | 43.14755 | 4.63834 | 14989 ft | 396 kts | 311° |
| 2026-05-04 07:16 | 43.16592 | 4.61041 | 14784 ft | 395 kts | 311° |
| 2026-05-04 07:17 | 43.18270 | 4.58487 | 14503 ft | 395 kts | 311° |
| 2026-05-04 07:17 | 43.20081 | 4.55727 | 12905 ft | 386 kts | 312° |
| 2026-05-04 07:17 | 43.22006 | 4.54378 | 13373 ft | 310 kts | 335° |
| 2026-05-04 07:17 | 43.23694 | 4.53070 | 14795 ft | 268 kts | 321° |
| 2026-05-04 07:18 | 43.24983 | 4.51424 | 15860 ft | 246 kts | 303° |
| 2026-05-04 07:18 | 43.25795 | 4.49325 | 15939 ft | 262 kts | 297° |
| 2026-05-04 07:18 | 43.26706 | 4.47079 | 15629 ft | 273 kts | 302° |
| 2026-05-04 07:18 | 43.27752 | 4.44931 | 15374 ft | 265 kts | 305° |
| 2026-05-04 07:19 | 43.28836 | 4.42938 | 15110 ft | 259 kts | 307° |
| 2026-05-04 07:19 | 43.29985 | 4.40963 | 14801 ft | 270 kts | 308° |
| 2026-05-04 07:19 | 43.31198 | 4.38960 | 14430 ft | 272 kts | 309° |
| 2026-05-04 07:19 | 43.32418 | 4.37000 | 14032 ft | 269 kts | 310° |
| 2026-05-04 07:20 | 43.33626 | 4.35092 | 13672 ft | 265 kts | 310° |
| 2026-05-04 07:20 | 43.34845 | 4.33177 | 13299 ft | 262 kts | 310° |
| 2026-05-04 07:20 | 43.36053 | 4.31344 | 13065 ft | 259 kts | 314° |
| 2026-05-04 07:20 | 43.37418 | 4.29549 | 12970 ft | 281 kts | 315° |
| 2026-05-04 07:22 | 43.32559 | 4.16230 | 10108 ft | 330 kts | 165° |
| 2026-05-04 07:22 | 43.30550 | 4.17635 | 9614 ft | 329 kts | 141° |
| 2026-05-04 07:23 | 43.29090 | 4.20008 | 9114 ft | 326 kts | 116° |
| 2026-05-04 07:23 | 43.28439 | 4.22927 | 8613 ft | 319 kts | 91° |
| 2026-05-04 07:23 | 43.28712 | 4.25965 | 8098 ft | 311 kts | 66° |
| 2026-05-04 07:23 | 43.29813 | 4.28413 | 7598 ft | 302 kts | 41° |
| 2026-05-04 07:24 | 43.31530 | 4.29953 | 7105 ft | 294 kts | 17° |
| 2026-05-04 07:24 | 43.33520 | 4.30261 | 6793 ft | 282 kts | 351° |
| 2026-05-04 07:24 | 43.35404 | 4.29690 | 6515 ft | 274 kts | 346° |
| 2026-05-04 07:24 | 43.37213 | 4.29066 | 6236 ft | 267 kts | 346° |
| 2026-05-04 07:25 | 43.39011 | 4.28445 | 5907 ft | 260 kts | 346° |
| 2026-05-04 07:26 | 43.47428 | 4.17713 | 3424 ft | 237 kts | 307° |
| 2026-05-04 07:27 | 43.48354 | 4.15869 | 3103 ft | 231 kts | 307° |
| 2026-05-04 07:27 | 43.49250 | 4.14087 | 2792 ft | 225 kts | 308° |
| 2026-05-04 07:27 | 43.50138 | 4.12333 | 2482 ft | 219 kts | 308° |
| 2026-05-04 07:27 | 43.51001 | 4.10630 | 2185 ft | 213 kts | 308° |
| 2026-05-04 07:28 | 43.51830 | 4.08992 | 1906 ft | 205 kts | 308° |
| 2026-05-04 07:28 | 43.52623 | 4.07422 | 1618 ft | 190 kts | 308° |
| 2026-05-04 07:28 | 43.53351 | 4.05984 | 1375 ft | 175 kts | 308° |
| 2026-05-04 07:28 | 43.54006 | 4.04677 | 1180 ft | 155 kts | 308° |
| 2026-05-04 07:29 | 43.54628 | 4.03452 | 947 ft | 156 kts | 310° |
| 2026-05-04 07:29 | 43.55246 | 4.02238 | 721 ft | 152 kts | 309° |
| 2026-05-04 07:29 | 43.55819 | 4.01099 | 539 ft | 141 kts | 309° |
| 2026-05-04 07:29 | 43.56391 | 3.99966 | 348 ft | 141 kts | 309° |
| 2026-05-04 07:30 | 43.56958 | 3.98846 | 157 ft | 141 kts | 309° |
| 2026-05-04 07:30 | 43.57520 | 3.97736 | 17 ft | 138 kts | 309° |
| 2026-05-04 07:30 | 43.57993 | 3.96799 | 8 ft | 86 kts | 303° |
| 2026-05-04 07:30 | 43.58248 | 3.96294 | 11 ft | 44 kts | 307° |
| 2026-05-04 07:31 | 43.58302 | 3.96075 | 14 ft | 15 kts | 258° |
| 2026-05-04 07:31 | 43.58271 | 3.95985 | 14 ft | 4 kts | 243° |
| 2026-05-04 07:33 | 43.58036 | 3.95764 | 17 ft | 0 kts | 214° |